createdAt,value
2018-01-31T01:52:20.356Z,38.90
2018-01-31T01:52:21.110Z,74.00
2018-01-31T01:54:27.418Z,70.27
2018-01-31T01:56:55.143Z,77.13
2018-01-31T01:59:22.646Z,69.33
2018-01-31T02:01:50.347Z,76.03
2018-01-31T02:04:17.848Z,68.27
2018-01-31T02:06:46.215Z,71.80
2018-01-31T02:09:13.966Z,76.13
2018-01-31T02:11:41.466Z,74.37
2018-01-31T02:14:09.010Z,76.53
2018-01-31T02:16:36.527Z,71.00
2018-01-31T02:19:04.098Z,83.57
2018-01-31T02:21:31.858Z,81.43
2018-01-31T02:23:59.366Z,76.17
2018-01-31T02:26:26.867Z,82.23
2018-01-31T02:28:54.384Z,81.53
2018-01-31T02:31:23.072Z,71.50
2018-01-31T02:33:51.633Z,84.07
2018-01-31T02:36:19.341Z,74.60
2018-01-31T02:38:58.805Z,64.20
2018-01-31T02:41:26.319Z,79.23
2018-01-31T02:43:53.827Z,68.07
2018-01-31T02:46:21.438Z,72.00
2018-01-31T02:48:48.943Z,78.57
2018-01-31T02:51:16.695Z,83.87
2018-01-31T02:53:44.207Z,71.70
2018-01-31T02:56:11.919Z,81.43
2018-01-31T02:58:39.431Z,68.87
2018-01-31T03:01:07.673Z,81.53
2018-01-31T03:03:35.516Z,71.00
2018-01-31T03:06:03.616Z,72.50
2018-01-31T03:08:31.121Z,67.07
2018-01-31T03:10:59.039Z,80.43
2018-01-31T03:13:26.541Z,71.43
2018-01-31T03:15:54.057Z,66.63
2018-01-31T03:18:21.665Z,71.13
2018-01-31T03:20:49.174Z,62.03
2018-01-31T03:23:16.683Z,67.03
2018-01-31T03:25:44.460Z,67.53
2018-01-31T03:28:12.279Z,70.43
2018-01-31T03:30:39.743Z,75.50
2018-01-31T03:33:07.460Z,59.93
2018-01-31T03:35:35.627Z,73.93
2018-01-31T03:38:03.184Z,67.40
2018-01-31T03:40:30.701Z,62.83
2018-01-31T03:42:58.994Z,59.03
2018-01-31T03:45:26.550Z,58.13
2018-01-31T03:47:54.062Z,76.70
2018-01-31T03:50:21.566Z,59.80
2018-01-31T03:52:49.067Z,66.43
2018-01-31T03:55:16.686Z,55.90
2018-01-31T03:57:44.180Z,57.20
2018-01-31T04:00:11.922Z,72.70
2018-01-31T04:02:39.428Z,61.97
2018-01-31T04:05:06.930Z,60.57
2018-01-31T04:07:34.607Z,67.67
2018-01-31T04:10:02.119Z,51.13
2018-01-31T04:12:29.828Z,62.93
2018-01-31T04:14:57.331Z,59.23
2018-01-31T04:17:25.015Z,53.17
2018-01-31T04:19:52.511Z,57.10
2018-01-31T04:22:20.559Z,56.53
2018-01-31T04:24:48.075Z,55.07
2018-01-31T04:27:15.795Z,48.37
2018-01-31T04:29:43.673Z,54.57
2018-01-31T04:32:11.295Z,57.03
2018-01-31T04:34:39.086Z,55.70
2018-01-31T04:37:06.587Z,49.00
2018-01-31T04:39:34.303Z,59.97
2018-01-31T04:42:02.074Z,52.77
2018-01-31T04:44:29.579Z,48.60
2018-01-31T04:46:57.252Z,41.20
2018-01-31T04:49:25.055Z,40.80
2018-01-31T04:51:52.562Z,43.97
2018-01-31T04:54:20.272Z,43.83
2018-01-31T04:56:47.784Z,40.97
2018-01-31T04:59:15.288Z,45.87
2018-01-31T05:01:42.797Z,33.10
2018-01-31T05:04:10.412Z,47.57
2018-01-31T05:06:37.911Z,41.53
2018-01-31T05:09:05.567Z,37.07
2018-01-31T05:11:33.083Z,37.97
2018-01-31T05:14:01.490Z,40.10
2018-01-31T05:16:29.013Z,36.70
2018-01-31T05:18:56.680Z,31.40
2018-01-31T05:21:24.474Z,33.77
2018-01-31T05:23:52.402Z,26.70
2018-01-31T05:26:19.970Z,38.43
2018-01-31T05:28:47.751Z,35.43
2018-01-31T05:31:16.120Z,37.20
2018-01-31T05:33:43.652Z,28.33
2018-01-31T05:36:11.370Z,27.13
2018-01-31T05:38:38.886Z,24.63
2018-01-31T05:41:06.571Z,21.10
2018-01-31T05:43:34.078Z,27.80
2018-01-31T05:46:01.577Z,24.20
2018-01-31T05:48:29.226Z,24.53
2018-01-31T05:50:56.726Z,20.30
2018-01-31T05:53:24.442Z,19.87
2018-01-31T05:55:51.942Z,25.00
2018-01-31T05:58:19.667Z,16.57
2018-01-31T06:00:47.431Z,21.47
2018-01-31T06:03:15.195Z,19.13
2018-01-31T06:05:42.707Z,20.50
2018-01-31T06:08:10.208Z,36.27
2018-01-31T06:10:37.743Z,18.73
2018-01-31T06:13:05.961Z,22.43
2018-01-31T06:15:33.465Z,20.23
2018-01-31T06:18:01.752Z,36.33
2018-01-31T06:20:29.258Z,23.23
2018-01-31T06:22:57.520Z,20.53
2018-01-31T06:25:25.032Z,28.00
2018-01-31T06:27:52.536Z,22.77
2018-01-31T06:30:20.051Z,25.70
2018-01-31T06:32:47.739Z,20.93
2018-01-31T06:35:15.251Z,18.43
2018-01-31T06:37:42.923Z,24.50
2018-01-31T06:40:10.439Z,21.10
2018-01-31T06:42:38.183Z,22.83
2018-01-31T06:45:05.947Z,34.57
2018-01-31T06:47:33.464Z,26.10
2018-01-31T06:50:00.985Z,31.43
2018-01-31T06:52:29.239Z,26.73
2018-01-31T06:54:56.773Z,20.83
2018-01-31T06:57:24.265Z,40.47
2018-01-31T06:59:51.774Z,20.97
2018-01-31T07:02:19.363Z,22.23
2018-01-31T07:04:47.134Z,24.93
2018-01-31T07:07:14.631Z,18.80
2018-01-31T07:09:42.351Z,18.53
2018-01-31T07:12:10.115Z,15.43
2018-01-31T07:14:37.880Z,19.80
2018-01-31T07:17:05.385Z,15.77
2018-01-31T07:19:32.896Z,12.57
2018-01-31T07:22:01.219Z,17.73
2018-01-31T07:24:28.846Z,20.10
2018-01-31T07:26:56.368Z,16.10
2018-01-31T07:29:23.871Z,14.63
2018-01-31T07:31:51.553Z,14.90
2018-01-31T07:34:19.067Z,13.77
2018-01-31T07:36:46.910Z,16.00
2018-01-31T07:39:14.571Z,13.40
2018-01-31T07:41:42.373Z,11.10
2018-01-31T07:44:09.996Z,18.13
2018-01-31T07:46:37.579Z,17.53
2018-01-31T07:49:05.095Z,9.63
2018-01-31T07:51:32.794Z,10.90
2018-01-31T07:54:00.576Z,11.77
2018-01-31T07:56:28.097Z,13.70
2018-01-31T07:58:55.794Z,13.83
2018-01-31T08:01:23.284Z,13.47
2018-01-31T08:03:50.783Z,10.37
2018-01-31T08:06:18.286Z,10.60
2018-01-31T08:08:46.546Z,14.00
2018-01-31T08:11:15.215Z,11.20
2018-01-31T08:13:42.706Z,13.97
2018-01-31T08:16:10.218Z,13.23
2018-01-31T08:18:37.764Z,10.03
2018-01-31T08:21:06.981Z,10.10
2018-01-31T08:23:34.475Z,11.13
2018-01-31T08:26:02.950Z,9.50
2018-01-31T08:28:30.457Z,5.13
2018-01-31T08:30:58.255Z,6.70
2018-01-31T08:33:25.847Z,7.07
2018-01-31T08:35:54.102Z,5.63
2018-01-31T08:38:21.599Z,9.07
2018-01-31T08:40:49.875Z,6.53
2018-01-31T08:43:17.371Z,7.77
2018-01-31T08:45:45.731Z,8.83
2018-01-31T08:48:13.243Z,7.60
2018-01-31T08:50:40.751Z,9.90
2018-01-31T08:53:08.255Z,10.63
2018-01-31T08:55:36.516Z,7.87
2018-01-31T08:58:04.268Z,11.10
2018-01-31T09:00:31.759Z,9.27
2018-01-31T09:02:59.480Z,8.70
2018-01-31T09:05:27.247Z,8.17
2018-01-31T09:07:55.012Z,8.50
2018-01-31T09:10:22.502Z,8.87
2018-01-31T09:12:50.007Z,9.40
2018-01-31T09:15:17.496Z,9.30
2018-01-31T09:17:45.049Z,7.47
2018-01-31T09:20:12.591Z,8.80
2018-01-31T09:22:40.355Z,8.57
2018-01-31T09:25:07.847Z,14.57
2018-01-31T09:27:35.579Z,8.83
2018-01-31T09:30:03.338Z,9.67
2018-01-31T09:32:30.842Z,9.43
2018-01-31T09:34:58.348Z,12.00
2018-01-31T09:37:26.198Z,10.47
2018-01-31T09:39:53.911Z,10.70
2018-01-31T09:42:21.404Z,10.43
2018-01-31T09:44:49.005Z,10.30
2018-01-31T09:47:16.762Z,8.13
2018-01-31T09:49:44.270Z,11.23
2018-01-31T09:52:11.943Z,11.40
2018-01-31T09:54:39.454Z,10.43
2018-01-31T09:57:07.202Z,7.50
2018-01-31T09:59:34.704Z,7.23
2018-01-31T10:02:03.221Z,8.43
2018-01-31T10:04:30.710Z,7.57
2018-01-31T10:06:58.202Z,8.40
2018-01-31T10:09:25.711Z,6.03
2018-01-31T10:11:53.321Z,12.20
2018-01-31T10:14:21.860Z,11.93
2018-01-31T10:16:49.364Z,8.13
2018-01-31T10:19:17.074Z,5.50
2018-01-31T10:21:44.562Z,8.30
2018-01-31T10:24:12.269Z,9.80
2018-01-31T10:26:39.757Z,14.80
2018-01-31T10:29:07.266Z,15.70
2018-01-31T10:31:34.765Z,10.10
2018-01-31T10:34:02.668Z,11.33
2018-01-31T10:36:30.169Z,15.27
2018-01-31T10:38:57.667Z,7.80
2018-01-31T10:41:25.376Z,9.50
2018-01-31T10:43:53.000Z,10.33
2018-01-31T10:46:20.508Z,12.53
2018-01-31T10:48:48.094Z,9.13
2018-01-31T10:51:15.587Z,9.70
2018-01-31T10:58:38.225Z,14.47
2018-01-31T11:01:05.727Z,5.43
2018-01-31T11:03:33.375Z,8.77
2018-01-31T11:06:00.907Z,7.13
2018-01-31T11:08:28.414Z,5.20
2018-01-31T11:10:55.926Z,8.77
2018-01-31T11:13:23.535Z,15.30
2018-01-31T11:15:51.059Z,9.40
2018-01-31T11:18:18.680Z,4.40
2018-01-31T11:20:46.387Z,7.10
2018-01-31T11:23:13.878Z,4.97
2018-01-31T11:25:41.387Z,6.73
2018-01-31T11:28:08.884Z,11.97
2018-01-31T11:30:37.795Z,6.70
2018-01-31T11:33:05.384Z,15.20
2018-01-31T11:35:33.159Z,6.07
2018-01-31T11:38:00.663Z,9.90
2018-01-31T11:40:28.162Z,6.17
2018-01-31T11:42:55.823Z,10.17
2018-01-31T11:45:23.326Z,11.20
2018-01-31T11:47:51.608Z,4.23
2018-01-31T11:50:19.120Z,5.47
2018-01-31T11:52:46.628Z,6.20
2018-01-31T11:55:14.334Z,11.83
2018-01-31T11:57:42.122Z,8.27
2018-01-31T12:00:09.860Z,5.53
2018-01-31T12:02:37.429Z,4.77
2018-01-31T12:05:05.076Z,9.40
2018-01-31T12:07:32.582Z,7.00
2018-01-31T12:10:01.024Z,10.97
2018-01-31T12:12:41.450Z,7.40
2018-01-31T12:15:21.008Z,7.87
2018-01-31T12:17:48.506Z,7.80
2018-01-31T12:20:27.911Z,11.90
2018-01-31T12:23:07.348Z,10.20
2018-01-31T12:25:46.732Z,11.57
2018-01-31T12:28:34.902Z,7.13
2018-01-31T12:31:14.336Z,6.00
2018-01-31T12:33:53.631Z,5.83
2018-01-31T12:36:33.134Z,6.30
2018-01-31T12:39:00.134Z,7.23
2018-01-31T12:41:27.151Z,4.73
2018-01-31T12:43:54.278Z,7.77
2018-01-31T12:46:33.534Z,6.40
2018-01-31T12:49:10.997Z,6.00
2018-01-31T12:51:51.235Z,10.70
2018-01-31T12:54:30.719Z,10.33
2018-01-31T12:57:10.231Z,13.80
2018-01-31T13:00:01.473Z,14.97
2018-01-31T13:03:08.415Z,7.37
2018-01-31T13:05:47.746Z,6.27
2018-01-31T13:08:27.291Z,7.00
2018-01-31T13:11:06.723Z,3.63
2018-01-31T13:13:46.186Z,7.47
2018-01-31T13:16:36.464Z,5.77
2018-01-31T13:19:15.804Z,2.60
2018-01-31T13:21:55.113Z,2.97
2018-01-31T13:24:34.675Z,5.40
2018-01-31T13:27:14.418Z,3.90
2018-01-31T13:29:53.858Z,2.50
2018-01-31T13:32:33.343Z,5.70
2018-01-31T13:35:12.875Z,4.40
2018-01-31T13:37:58.767Z,3.07
2018-01-31T13:40:38.990Z,5.40
2018-01-31T13:43:18.388Z,6.43
2018-01-31T13:45:57.795Z,2.90
2018-01-31T13:48:38.074Z,1.43
2018-01-31T13:51:18.008Z,4.20
2018-01-31T13:53:57.345Z,4.10
2018-01-31T13:56:36.714Z,2.63
2018-01-31T13:59:16.217Z,1.70
2018-01-31T14:01:55.715Z,4.97
2018-01-31T14:04:35.663Z,1.63
2018-01-31T14:07:15.094Z,1.53
2018-01-31T14:09:54.523Z,1.57
2018-01-31T14:12:34.068Z,5.17
2018-01-31T14:15:26.255Z,1.63
2018-01-31T14:18:15.142Z,5.00
2018-01-31T14:20:54.494Z,9.73
2018-01-31T14:23:34.530Z,6.40
2018-01-31T14:26:13.772Z,4.43
2018-01-31T14:29:05.882Z,14.23
2018-01-31T14:31:45.335Z,5.03
2018-01-31T14:34:24.771Z,3.20
2018-01-31T14:36:52.046Z,9.77
2018-01-31T14:39:19.504Z,2.23
2018-01-31T14:41:46.750Z,4.67
2018-01-31T14:44:13.760Z,7.33
2018-01-31T14:46:40.773Z,5.50
2018-01-31T14:49:07.787Z,8.70
2018-01-31T14:51:34.794Z,4.93
2018-01-31T14:54:02.085Z,7.47
2018-01-31T14:56:29.336Z,1.83
2018-01-31T14:58:56.342Z,5.97
2018-01-31T15:01:23.364Z,1.03
2018-01-31T15:03:50.473Z,4.63
2018-01-31T15:06:17.526Z,5.03
2018-01-31T15:08:44.536Z,0.90
2018-01-31T15:11:11.544Z,7.80
2018-01-31T15:13:38.551Z,3.17
2018-01-31T15:16:05.551Z,6.03
2018-01-31T15:18:32.573Z,1.73
2018-01-31T15:20:59.805Z,1.10
2018-01-31T15:23:26.830Z,2.17
2018-01-31T15:25:53.850Z,1.20
2018-01-31T15:28:20.907Z,1.07
2018-01-31T15:30:47.890Z,1.77
2018-01-31T15:33:14.902Z,1.17
2018-01-31T15:35:41.915Z,1.10
2018-01-31T15:38:09.244Z,1.60
2018-01-31T15:40:36.251Z,6.70
2018-01-31T15:43:03.275Z,7.83
2018-01-31T15:45:30.275Z,1.70
2018-01-31T15:47:57.531Z,5.23
2018-01-31T15:50:24.535Z,1.60
2018-01-31T15:52:51.825Z,5.57
2018-01-31T15:55:18.841Z,2.10
2018-01-31T15:57:45.918Z,3.27
2018-01-31T16:00:12.943Z,4.33
2018-01-31T16:02:39.945Z,2.73
2018-01-31T16:05:07.722Z,2.87
2018-01-31T16:07:35.659Z,3.00
2018-01-31T16:10:02.674Z,2.03
2018-01-31T16:12:30.123Z,3.43
2018-01-31T16:14:57.311Z,8.30
2018-01-31T16:17:24.855Z,1.63
2018-01-31T16:20:04.295Z,2.90
2018-01-31T16:22:31.787Z,2.90
2018-01-31T16:24:59.511Z,1.53
2018-01-31T16:27:27.812Z,7.20
2018-01-31T16:30:05.235Z,2.07
2018-01-31T16:32:44.671Z,0.70
2018-01-31T16:35:12.427Z,1.00
2018-01-31T16:37:40.143Z,0.50
2018-01-31T16:40:07.680Z,1.23
2018-01-31T16:42:35.363Z,1.37
2018-01-31T16:45:02.922Z,6.13
2018-01-31T16:47:30.594Z,1.27
2018-01-31T16:49:58.875Z,1.57
2018-01-31T16:52:26.423Z,2.57
2018-01-31T16:54:53.916Z,1.17
2018-01-31T16:57:21.425Z,1.30
2018-01-31T16:59:49.200Z,5.10
2018-01-31T17:02:16.860Z,1.13
2018-01-31T17:04:44.622Z,0.80
2018-01-31T17:07:12.800Z,1.90
2018-01-31T17:09:40.301Z,2.93
2018-01-31T17:12:08.570Z,4.30
2018-01-31T17:14:36.291Z,0.70
2018-01-31T17:17:04.687Z,1.33
2018-01-31T17:19:32.428Z,1.63
2018-01-31T17:22:00.101Z,1.73
2018-01-31T17:24:28.140Z,1.30
2018-01-31T17:26:55.726Z,1.27
2018-01-31T17:29:23.219Z,0.80
2018-01-31T17:31:50.736Z,4.40
2018-01-31T17:34:19.528Z,3.23
2018-01-31T17:36:47.079Z,5.03
2018-01-31T17:39:14.592Z,7.67
2018-01-31T17:41:42.306Z,4.57
2018-01-31T17:44:10.513Z,3.07
2018-01-31T17:46:39.775Z,4.80
2018-01-31T17:49:07.820Z,4.03
2018-01-31T17:51:35.310Z,4.50
2018-01-31T17:54:02.946Z,4.90
2018-01-31T17:56:30.447Z,2.40
2018-01-31T17:58:58.199Z,6.60
2018-01-31T18:01:25.707Z,6.77
2018-01-31T18:03:53.398Z,3.23
2018-01-31T18:06:20.940Z,1.33
2018-01-31T18:08:48.453Z,0.97
2018-01-31T18:11:16.043Z,3.40
2018-01-31T18:13:43.543Z,4.77
2018-01-31T18:16:11.040Z,3.33
2018-01-31T18:18:38.535Z,3.20
2018-01-31T18:21:06.045Z,1.77
2018-01-31T18:23:33.662Z,1.53
2018-01-31T18:26:01.158Z,3.10
2018-01-31T18:28:28.675Z,1.50
2018-01-31T18:30:56.351Z,1.77
2018-01-31T18:33:24.115Z,7.10
2018-01-31T18:35:51.836Z,3.23
2018-01-31T18:38:19.336Z,1.50
2018-01-31T18:40:46.833Z,2.33
2018-01-31T18:43:15.183Z,3.57
2018-01-31T18:45:42.696Z,4.67
2018-01-31T18:48:10.943Z,2.43
2018-01-31T18:50:38.486Z,3.73
2018-01-31T18:53:05.943Z,6.20
2018-01-31T18:55:34.254Z,9.50
2018-01-31T18:58:02.255Z,1.07
2018-01-31T19:00:29.823Z,1.03
2018-01-31T19:02:57.787Z,0.97
2018-01-31T19:05:25.667Z,1.50
2018-01-31T19:07:53.159Z,1.07
2018-01-31T19:10:20.675Z,4.97
2018-01-31T19:12:48.168Z,1.67
2018-01-31T19:15:16.436Z,5.73
2018-01-31T19:17:44.391Z,2.37
2018-01-31T19:20:12.855Z,3.03
2018-01-31T19:22:40.596Z,7.73
2018-01-31T19:25:08.121Z,1.60
2018-01-31T19:27:35.620Z,7.20
2018-01-31T19:30:03.114Z,4.03
2018-01-31T19:32:31.864Z,6.87
2018-01-31T19:34:59.428Z,2.30
2018-01-31T19:37:26.942Z,4.17
2018-01-31T19:39:54.628Z,3.10
2018-01-31T19:42:22.246Z,2.50
2018-01-31T19:44:50.517Z,1.90
2018-01-31T19:47:18.719Z,3.40
2018-01-31T19:49:46.235Z,7.33
2018-01-31T19:52:13.767Z,1.97
2018-01-31T19:54:41.271Z,1.43
2018-01-31T19:57:08.779Z,2.63
2018-01-31T19:59:36.485Z,2.50
2018-01-31T20:02:04.732Z,8.33
2018-01-31T20:04:32.324Z,2.23
2018-01-31T20:06:59.856Z,2.03
2018-01-31T20:09:27.509Z,6.93
2018-01-31T20:11:55.019Z,4.50
2018-01-31T20:14:22.651Z,2.80
2018-01-31T20:16:50.214Z,7.17
2018-01-31T20:19:18.605Z,1.63
2018-01-31T20:21:46.319Z,2.23
2018-01-31T20:24:14.102Z,4.90
2018-01-31T20:26:43.475Z,1.83
2018-01-31T20:29:10.982Z,8.03
2018-01-31T20:31:39.246Z,3.43
2018-01-31T20:34:07.354Z,7.40
2018-01-31T20:36:35.091Z,3.73
2018-01-31T20:39:02.656Z,7.53
2018-01-31T20:41:30.935Z,1.90
2018-01-31T20:43:58.482Z,1.23
2018-01-31T20:46:26.671Z,3.47
2018-01-31T20:48:54.183Z,3.03
2018-01-31T20:51:21.943Z,3.83
2018-01-31T20:53:49.458Z,12.50
2018-01-31T20:56:16.958Z,4.47
2018-01-31T20:58:45.917Z,3.47
2018-01-31T21:01:13.437Z,3.27
2018-01-31T21:03:41.674Z,3.30
2018-01-31T21:06:09.447Z,5.73
2018-01-31T21:08:36.980Z,3.93
2018-01-31T21:11:04.490Z,5.80
2018-01-31T21:13:31.994Z,2.47
2018-01-31T21:15:59.487Z,12.13
2018-01-31T21:18:27.762Z,2.70
2018-01-31T21:20:55.427Z,3.27
2018-01-31T21:23:22.926Z,5.40
2018-01-31T21:25:50.626Z,4.80
2018-01-31T21:28:18.117Z,2.60
2018-01-31T21:30:45.711Z,2.60
2018-01-31T21:33:13.311Z,7.70
2018-01-31T21:35:40.811Z,4.17
2018-01-31T21:38:08.313Z,2.13
2018-01-31T21:40:37.167Z,7.13
2018-01-31T21:43:04.749Z,6.27
2018-01-31T21:45:32.316Z,2.77
2018-01-31T21:47:59.879Z,5.00
2018-01-31T21:50:27.382Z,2.40
2018-01-31T21:52:54.884Z,2.40
2018-01-31T21:55:22.505Z,3.43
2018-01-31T21:57:55.770Z,4.33
2018-01-31T22:00:23.372Z,5.80
2018-01-31T22:02:51.069Z,7.73
2018-01-31T22:05:18.571Z,10.20
2018-01-31T22:07:46.095Z,11.40
2018-01-31T22:10:13.603Z,9.10
2018-01-31T22:12:41.863Z,4.43
2018-01-31T22:15:09.599Z,5.83
2018-01-31T22:17:37.355Z,4.10
2018-01-31T22:20:05.676Z,20.93
2018-01-31T22:22:33.943Z,9.77
2018-01-31T22:25:02.219Z,6.53
2018-01-31T22:27:29.722Z,5.10
2018-01-31T22:29:57.207Z,6.50
2018-01-31T22:32:24.710Z,7.50
2018-01-31T22:34:52.211Z,8.00
2018-01-31T22:37:19.775Z,7.73
2018-01-31T22:39:47.273Z,8.53
2018-01-31T22:42:14.779Z,12.00
2018-01-31T22:44:42.278Z,12.93
2018-01-31T22:47:09.904Z,11.30
2018-01-31T22:49:37.399Z,10.80
2018-01-31T22:52:05.126Z,10.77
2018-01-31T22:54:32.918Z,7.13
2018-01-31T22:57:00.659Z,12.10
2018-01-31T22:59:28.155Z,15.10
2018-01-31T23:01:55.835Z,5.60
2018-01-31T23:04:23.336Z,14.43
2018-01-31T23:06:50.839Z,6.00
2018-01-31T23:09:18.511Z,10.60
2018-01-31T23:11:46.031Z,3.03
2018-01-31T23:14:19.139Z,4.70
2018-01-31T23:16:47.407Z,3.50
2018-01-31T23:19:15.400Z,11.03
2018-01-31T23:21:42.896Z,8.40
2018-01-31T23:24:10.406Z,12.23
2018-01-31T23:26:37.908Z,3.27
2018-01-31T23:29:05.934Z,8.43
2018-01-31T23:31:33.621Z,9.93
2018-01-31T23:34:01.415Z,10.93
2018-01-31T23:36:28.910Z,7.47
2018-01-31T23:38:57.326Z,2.70
2018-01-31T23:41:24.818Z,7.07
2018-01-31T23:43:52.315Z,2.30
2018-01-31T23:46:19.935Z,10.43
2018-01-31T23:48:47.426Z,6.10
2018-01-31T23:51:14.941Z,7.10
2018-01-31T23:53:42.435Z,8.03
2018-01-31T23:56:10.698Z,9.23
2018-01-31T23:58:38.675Z,6.03
